createdAt,value
2022-08-10T00:03:01.775Z,15.26
2022-08-10T00:06:05.740Z,15.24
2022-08-10T00:09:09.422Z,15.16
2022-08-10T00:12:14.441Z,15.11
2022-08-10T00:15:44.416Z,15.08
2022-08-10T00:18:46.404Z,15.01
2022-08-10T00:21:50.276Z,14.94
2022-08-10T00:24:57.398Z,14.89
2022-08-10T00:28:04.257Z,14.75
2022-08-10T00:31:08.177Z,14.64
2022-08-10T00:34:12.012Z,14.57
2022-08-10T00:37:17.373Z,14.53
2022-08-10T00:40:37.303Z,14.47
2022-08-10T00:43:42.972Z,14.48
2022-08-10T00:46:47.383Z,14.45
2022-08-10T00:49:53.232Z,14.41
2022-08-10T00:52:57.287Z,14.35
2022-08-10T00:57:12.160Z,14.32
2022-08-10T00:59:27.426Z,14.27
2022-08-10T01:02:33.388Z,14.24
2022-08-10T01:05:51.565Z,14.14
2022-08-10T01:09:07.450Z,14.13
2022-08-10T01:12:40.698Z,14.06
2022-08-10T01:15:57.871Z,13.99
2022-08-10T01:19:22.476Z,13.99
2022-08-10T01:23:03.658Z,13.93
2022-08-10T01:26:41.216Z,13.87
2022-08-10T01:30:09.813Z,13.83
2022-08-10T01:33:31.762Z,13.78
2022-08-10T01:37:00.918Z,13.82
2022-08-10T01:40:13.625Z,13.83
2022-08-10T01:43:22.035Z,13.78
2022-08-10T01:46:30.383Z,13.70
2022-08-10T01:49:35.970Z,13.63
2022-08-10T01:52:44.267Z,13.66
2022-08-10T01:55:51.094Z,13.67
2022-08-10T01:59:01.042Z,13.65
2022-08-10T02:02:11.370Z,13.62
2022-08-10T02:05:17.044Z,13.64
2022-08-10T02:08:24.354Z,13.59
2022-08-10T02:11:29.806Z,13.53
2022-08-10T02:14:59.952Z,13.47
2022-08-10T02:18:08.232Z,13.49
2022-08-10T02:21:15.063Z,13.46
2022-08-10T02:24:22.004Z,13.42
2022-08-10T02:27:28.636Z,13.36
2022-08-10T02:30:35.026Z,13.31
2022-08-10T02:33:56.369Z,13.29
2022-08-10T02:37:10.737Z,13.31
2022-08-10T02:45:14.465Z,13.30
2022-08-10T02:45:20.243Z,13.30
2022-08-10T02:47:23.730Z,13.21
2022-08-10T02:50:34.288Z,13.16
2022-08-10T02:53:54.355Z,13.09
2022-08-10T02:57:11.645Z,12.99
2022-08-10T03:00:16.343Z,12.95
2022-08-10T03:03:25.911Z,12.91
2022-08-10T03:06:43.676Z,12.87
2022-08-10T03:09:51.292Z,12.91
2022-08-10T03:13:01.452Z,12.88
2022-08-10T03:16:06.973Z,12.88
2022-08-10T03:20:33.336Z,12.94
2022-08-10T03:22:40.927Z,12.90
2022-08-10T03:25:52.686Z,12.92
2022-08-10T03:29:00.017Z,12.87
2022-08-10T03:32:06.831Z,12.84
2022-08-10T03:35:12.311Z,12.86
2022-08-10T03:38:17.385Z,12.82
2022-08-10T03:41:29.748Z,12.86
2022-08-10T03:44:47.279Z,12.77
2022-08-10T03:47:55.656Z,12.74
2022-08-10T03:51:01.129Z,12.64
2022-08-10T03:54:07.968Z,12.59
2022-08-10T03:57:12.980Z,12.38
2022-08-10T04:00:18.870Z,12.37
2022-08-10T04:03:22.605Z,12.39
2022-08-10T04:06:33.365Z,12.35
2022-08-10T04:09:53.986Z,12.35
2022-08-10T04:12:59.900Z,12.33
2022-08-10T04:16:07.418Z,12.25
2022-08-10T04:19:13.157Z,12.30
2022-08-10T04:22:26.829Z,12.31
2022-08-10T04:25:33.112Z,12.34
2022-08-10T04:28:37.608Z,12.41
2022-08-10T04:31:44.692Z,12.49
2022-08-10T04:34:50.516Z,12.52
2022-08-10T04:37:57.885Z,12.55
2022-08-10T04:41:03.572Z,12.70
2022-08-10T04:44:07.285Z,12.81
2022-08-10T04:47:11.108Z,12.87
2022-08-10T04:50:15.384Z,13.01
2022-08-10T04:53:21.864Z,13.09
2022-08-10T04:56:31.485Z,13.23
2022-08-10T04:59:35.904Z,13.29
2022-08-10T05:02:39.992Z,13.50
2022-08-10T05:05:43.982Z,13.62
2022-08-10T05:08:47.676Z,13.65
2022-08-10T05:11:52.687Z,13.79
2022-08-10T05:14:56.617Z,13.99
2022-08-10T05:18:08.692Z,14.11
2022-08-10T05:21:52.055Z,14.28
2022-08-10T05:24:38.740Z,14.44
2022-08-10T05:27:45.135Z,14.56
2022-08-10T05:30:49.531Z,14.65
2022-08-10T05:33:53.201Z,14.67
2022-08-10T05:36:58.232Z,14.94
2022-08-10T05:40:06.205Z,15.30
2022-08-10T05:43:11.523Z,15.78
2022-08-10T05:46:21.129Z,16.25
2022-08-10T05:49:24.936Z,16.63
2022-08-10T05:52:28.626Z,16.98
2022-08-10T05:55:32.993Z,17.25
2022-08-10T05:58:38.932Z,17.42
2022-08-10T06:02:33.842Z,17.71
2022-08-10T06:05:12.489Z,17.90
2022-08-10T06:08:21.693Z,17.93
2022-08-10T06:12:26.844Z,18.15
2022-08-10T06:15:05.540Z,18.39
2022-08-10T06:18:11.603Z,18.47
2022-08-10T06:21:16.637Z,18.63
2022-08-10T06:24:25.562Z,18.66
2022-08-10T06:27:35.934Z,18.91
2022-08-10T06:30:43.235Z,19.02
2022-08-10T06:33:48.237Z,19.21
2022-08-10T06:36:54.208Z,19.31
2022-08-10T06:39:58.319Z,19.34
2022-08-10T06:43:07.839Z,19.30
2022-08-10T06:46:18.347Z,19.60
2022-08-10T06:49:24.440Z,19.77
2022-08-10T06:52:32.785Z,19.86
2022-08-10T06:55:40.157Z,20.26
2022-08-10T06:59:08.088Z,20.46
2022-08-10T07:02:29.387Z,20.62
2022-08-10T07:05:39.110Z,20.58
2022-08-10T07:08:44.439Z,20.92
2022-08-10T07:11:52.001Z,20.86
2022-08-10T07:14:59.412Z,20.83
2022-08-10T07:18:06.423Z,21.07
2022-08-10T07:21:12.612Z,21.29
2022-08-10T07:24:18.817Z,21.56
2022-08-10T07:27:24.982Z,21.42
2022-08-10T07:30:31.326Z,21.40
2022-08-10T07:33:37.987Z,21.66
2022-08-10T07:36:45.860Z,21.65
2022-08-10T07:40:02.088Z,21.60
2022-08-10T07:43:11.088Z,22.41
2022-08-10T07:46:18.277Z,22.44
2022-08-10T07:49:28.964Z,22.77
2022-08-10T07:52:39.996Z,22.99
2022-08-10T07:56:08.098Z,22.90
2022-08-10T07:59:17.067Z,22.89
2022-08-10T08:02:30.013Z,22.99
2022-08-10T08:05:58.971Z,23.48
2022-08-10T08:09:07.015Z,23.70
2022-08-10T08:12:12.531Z,23.75
2022-08-10T08:16:17.221Z,24.14
2022-08-10T08:19:09.586Z,24.29
2022-08-10T08:24:09.601Z,24.47
2022-08-10T08:25:44.463Z,24.51
2022-08-10T08:28:50.118Z,24.27
2022-08-10T08:32:02.157Z,24.65
2022-08-10T08:35:10.415Z,24.60
2022-08-10T08:38:33.972Z,24.85
2022-08-10T08:42:04.062Z,25.29
2022-08-10T08:45:25.259Z,25.25
2022-08-10T08:48:51.248Z,25.36
2022-08-10T08:52:18.228Z,25.58
2022-08-10T08:56:03.164Z,25.56
2022-08-10T08:59:36.535Z,25.84
2022-08-10T09:03:12.874Z,26.09
2022-08-10T09:06:44.971Z,26.04
2022-08-10T09:10:11.424Z,26.77
2022-08-10T09:13:29.782Z,26.37
2022-08-10T09:16:46.986Z,26.46
2022-08-10T09:20:00.032Z,26.30
2022-08-10T09:23:15.420Z,26.17
2022-08-10T09:26:22.590Z,26.29
2022-08-10T09:29:32.502Z,25.25
2022-08-10T09:36:14.871Z,26.02
2022-08-10T09:36:33.257Z,26.21
2022-08-10T09:40:56.432Z,26.42
2022-08-10T09:43:26.714Z,26.27
2022-08-10T09:46:55.754Z,25.71
2022-08-10T09:50:17.307Z,25.07
2022-08-10T09:53:39.390Z,25.00
2022-08-10T09:57:17.962Z,24.93
2022-08-10T10:00:27.700Z,24.81
2022-08-10T10:03:46.151Z,24.62
2022-08-10T10:06:57.699Z,24.20
2022-08-10T10:10:11.808Z,24.56
2022-08-10T10:14:01.529Z,24.60
2022-08-10T10:17:08.995Z,24.73
2022-08-10T10:20:27.073Z,25.18
2022-08-10T10:24:19.800Z,24.75
2022-08-10T10:27:34.003Z,24.81
2022-08-10T10:30:54.245Z,25.00
2022-08-10T10:34:13.591Z,24.82
2022-08-10T10:38:02.200Z,24.95
2022-08-10T10:40:56.800Z,24.59
2022-08-10T10:44:20.400Z,24.55
2022-08-10T10:48:00.715Z,24.45
2022-08-10T10:51:17.868Z,24.79
2022-08-10T10:54:36.975Z,24.77
2022-08-10T10:57:58.503Z,24.88
2022-08-10T11:01:21.974Z,24.73
2022-08-10T11:04:35.799Z,24.77
2022-08-10T11:07:53.538Z,24.55
2022-08-10T11:11:20.533Z,24.76
2022-08-10T11:14:42.467Z,24.57
2022-08-10T11:17:53.576Z,24.81
2022-08-10T11:21:13.554Z,25.20
2022-08-10T11:24:47.941Z,25.38
2022-08-10T11:28:08.241Z,25.07
2022-08-10T11:31:22.816Z,24.83
2022-08-10T11:34:48.170Z,25.04
2022-08-10T11:38:28.373Z,25.24
2022-08-10T11:42:07.949Z,25.30
2022-08-10T11:45:31.440Z,25.01
2022-08-10T11:48:54.546Z,25.42
2022-08-10T11:52:07.690Z,24.91
2022-08-10T11:55:20.110Z,25.18
2022-08-10T11:58:45.675Z,25.40
2022-08-10T12:01:55.717Z,25.80
2022-08-10T12:05:09.632Z,25.36
2022-08-10T12:10:06.916Z,25.36
2022-08-10T12:11:43.941Z,25.74
2022-08-10T12:14:56.725Z,25.50
2022-08-10T12:18:13.683Z,25.43
2022-08-10T12:21:24.029Z,25.63
2022-08-10T12:24:38.761Z,25.58
2022-08-10T12:27:49.943Z,25.74
2022-08-10T12:31:00.532Z,25.80
2022-08-10T12:34:21.483Z,25.93
2022-08-10T12:37:36.437Z,25.92
2022-08-10T12:40:47.910Z,25.83
2022-08-10T12:44:06.787Z,25.99
2022-08-10T12:47:27.174Z,25.71
2022-08-10T12:50:43.161Z,25.82
2022-08-10T12:53:56.653Z,26.07
2022-08-10T12:57:05.109Z,25.98
2022-08-10T13:00:17.738Z,26.02
2022-08-10T13:04:23.228Z,25.94
2022-08-10T13:06:54.175Z,25.68
2022-08-10T13:10:05.972Z,25.21
2022-08-10T13:13:14.871Z,25.57
2022-08-10T13:16:23.485Z,25.56
2022-08-10T13:19:55.229Z,25.83
2022-08-10T13:23:00.977Z,25.94
2022-08-10T13:26:06.570Z,26.19
2022-08-10T13:29:17.868Z,26.29
2022-08-10T13:32:31.781Z,26.29
2022-08-10T13:35:37.264Z,26.15
2022-08-10T13:38:43.990Z,26.16
2022-08-10T13:41:50.407Z,26.34
2022-08-10T13:44:57.170Z,26.28
2022-08-10T13:48:14.278Z,26.32
2022-08-10T13:51:21.715Z,26.21
2022-08-10T13:54:49.099Z,26.29
2022-08-10T13:57:59.371Z,26.31
2022-08-10T14:01:13.902Z,26.26
2022-08-10T14:04:19.374Z,26.17
2022-08-10T14:07:27.164Z,26.34
2022-08-10T14:11:09.719Z,26.35
2022-08-10T14:14:09.244Z,26.56
2022-08-10T14:17:15.051Z,26.78
2022-08-10T14:20:22.556Z,26.76
2022-08-10T14:23:27.033Z,26.75
2022-08-10T14:26:33.334Z,26.47
2022-08-10T14:29:47.550Z,26.54
2022-08-10T14:32:53.875Z,26.53
2022-08-10T14:36:19.739Z,26.49
2022-08-10T14:39:43.900Z,26.65
2022-08-10T14:42:57.253Z,26.61
2022-08-10T14:46:06.927Z,26.82
2022-08-10T14:49:26.292Z,26.77
2022-08-10T14:52:36.978Z,26.60
2022-08-10T14:55:59.221Z,26.61
2022-08-10T14:59:09.436Z,26.65
2022-08-10T15:02:40.730Z,26.77
2022-08-10T15:05:44.088Z,26.82
2022-08-10T15:08:51.219Z,26.87
2022-08-10T15:12:13.992Z,26.87
2022-08-10T15:15:45.458Z,26.86
2022-08-10T15:19:02.820Z,26.73
2022-08-10T15:22:47.089Z,26.83
2022-08-10T15:25:57.701Z,26.77
2022-08-10T15:29:23.577Z,26.78
2022-08-10T15:32:59.123Z,26.82
2022-08-10T15:36:24.235Z,26.80
2022-08-10T15:40:26.001Z,26.67
2022-08-10T15:43:20.905Z,26.80
2022-08-10T15:46:40.971Z,26.88
2022-08-10T15:49:58.288Z,26.81
2022-08-10T15:53:16.854Z,26.94
2022-08-10T15:56:31.351Z,26.79
2022-08-10T15:59:44.462Z,26.59
2022-08-10T16:02:55.625Z,26.69
2022-08-10T16:06:04.660Z,26.66
2022-08-10T16:10:10.514Z,26.64
2022-08-10T16:12:59.650Z,26.66
2022-08-10T16:16:08.419Z,26.73
2022-08-10T16:19:24.194Z,26.71
2022-08-10T16:22:37.130Z,26.51
2022-08-10T16:25:52.849Z,26.34
2022-08-10T16:29:09.131Z,26.40
2022-08-10T16:32:15.366Z,26.37
2022-08-10T16:35:23.436Z,26.37
2022-08-10T16:38:29.721Z,26.23
2022-08-10T16:42:04.183Z,26.31
2022-08-10T16:45:05.595Z,26.28
2022-08-10T16:48:11.341Z,26.35
2022-08-10T16:51:21.668Z,26.24
2022-08-10T16:54:29.168Z,26.15
2022-08-10T16:57:40.040Z,26.17
2022-08-10T17:00:47.493Z,26.01
2022-08-10T17:04:05.727Z,25.95
2022-08-10T17:07:18.543Z,25.89
2022-08-10T17:10:24.929Z,25.85
2022-08-10T17:13:30.926Z,25.73
2022-08-10T17:16:39.623Z,25.62
2022-08-10T17:19:46.714Z,25.59
2022-08-10T17:22:55.067Z,25.58
2022-08-10T17:26:08.724Z,25.49
2022-08-10T17:29:57.703Z,25.40
2022-08-10T17:32:52.684Z,25.28
2022-08-10T17:36:03.601Z,25.31
2022-08-10T17:39:13.917Z,25.19
2022-08-10T17:42:23.012Z,25.15
2022-08-10T17:45:47.013Z,25.06
2022-08-10T17:48:56.504Z,25.02
2022-08-10T17:52:02.767Z,24.94
2022-08-10T17:55:09.569Z,24.93
2022-08-10T17:58:18.014Z,24.86
2022-08-10T18:01:41.680Z,24.70
2022-08-10T18:04:53.577Z,24.71
2022-08-10T18:07:59.341Z,24.47
2022-08-10T18:11:06.092Z,24.35
2022-08-10T18:14:13.508Z,24.22
2022-08-10T18:17:23.391Z,24.08
2022-08-10T18:20:36.683Z,24.02
2022-08-10T18:23:44.713Z,23.94
2022-08-10T18:27:03.633Z,23.83
2022-08-10T18:30:11.026Z,23.75
2022-08-10T18:33:17.272Z,23.65
2022-08-10T18:36:23.299Z,23.54
2022-08-10T18:39:33.385Z,23.45
2022-08-10T18:42:48.913Z,23.29
2022-08-10T18:45:57.939Z,23.22
2022-08-10T18:49:07.059Z,23.10
2022-08-10T18:52:15.486Z,22.98
2022-08-10T18:55:26.852Z,22.88
2022-08-10T18:59:05.672Z,22.72
2022-08-10T19:02:42.632Z,22.55
2022-08-10T19:06:18.538Z,22.41
2022-08-10T19:09:46.756Z,22.31
2022-08-10T19:13:02.394Z,22.18
2022-08-10T19:16:20.871Z,22.05
2022-08-10T19:19:41.265Z,21.93
2022-08-10T19:22:55.317Z,21.82
2022-08-10T19:26:40.728Z,21.72
2022-08-10T19:30:10.182Z,21.59
2022-08-10T19:33:26.468Z,21.52
2022-08-10T19:36:46.626Z,21.45
2022-08-10T19:40:11.833Z,21.35
2022-08-10T19:43:59.170Z,21.24
2022-08-10T19:47:03.784Z,21.16
2022-08-10T19:50:17.264Z,21.12
2022-08-10T19:53:36.855Z,21.05
2022-08-10T19:56:56.290Z,21.02
2022-08-10T20:00:19.452Z,20.94
2022-08-10T20:03:36.547Z,20.89
2022-08-10T20:06:45.904Z,20.82
2022-08-10T20:10:00.446Z,20.80
2022-08-10T20:13:15.945Z,20.81
2022-08-10T20:16:23.724Z,20.70
2022-08-10T20:19:53.378Z,20.65
2022-08-10T20:23:13.897Z,20.61
2022-08-10T20:26:25.316Z,20.55
2022-08-10T20:29:58.664Z,20.46
2022-08-10T20:33:10.386Z,20.43
2022-08-10T20:36:26.863Z,20.31
2022-08-10T20:39:46.488Z,20.22
2022-08-10T20:43:10.621Z,20.13
2022-08-10T20:46:27.616Z,20.02
2022-08-10T20:49:44.813Z,19.88
2022-08-10T20:52:52.996Z,19.77
2022-08-10T20:56:13.874Z,19.68
2022-08-10T21:00:04.423Z,19.65
2022-08-10T21:03:33.808Z,19.59
2022-08-10T21:08:00.489Z,19.50
2022-08-10T21:11:16.864Z,19.45
2022-08-10T21:14:45.058Z,19.39
2022-08-10T21:18:05.793Z,19.28
2022-08-10T21:21:41.605Z,19.23
2022-08-10T21:24:54.735Z,19.12
2022-08-10T21:29:03.322Z,19.03
2022-08-10T21:32:23.512Z,18.98
2022-08-10T21:35:40.667Z,18.90
2022-08-10T21:38:57.265Z,18.79
2022-08-10T21:42:36.827Z,18.75
2022-08-10T21:46:08.630Z,18.68
2022-08-10T21:49:43.998Z,18.65
2022-08-10T21:53:17.174Z,18.56
2022-08-10T21:56:50.347Z,18.48
2022-08-10T22:00:22.416Z,18.43
2022-08-10T22:03:44.776Z,18.40
2022-08-10T22:07:09.171Z,18.30
2022-08-10T22:10:35.457Z,18.29
2022-08-10T22:14:05.069Z,18.26
2022-08-10T22:21:28.783Z,18.13
2022-08-10T22:25:24.453Z,18.07
2022-08-10T22:28:45.740Z,18.00
2022-08-10T22:31:27.154Z,18.21
2022-08-10T22:32:24.506Z,17.95
2022-08-10T22:36:17.793Z,17.94
2022-08-10T22:40:12.353Z,17.91
2022-08-10T22:43:46.054Z,17.84
2022-08-10T22:47:09.266Z,17.79
2022-08-10T22:50:18.312Z,17.76
2022-08-10T22:53:50.703Z,17.71
2022-08-10T22:57:12.107Z,17.66
2022-08-10T23:00:30.836Z,17.59
2022-08-10T23:03:47.401Z,17.53
2022-08-10T23:06:58.312Z,17.50
2022-08-10T23:10:07.660Z,17.47
2022-08-10T23:13:29.426Z,17.44
2022-08-10T23:17:06.692Z,17.40
2022-08-10T23:20:19.045Z,17.34
2022-08-10T23:23:27.055Z,17.30
2022-08-10T23:26:35.650Z,17.24
2022-08-10T23:30:04.091Z,17.20
2022-08-10T23:33:10.793Z,17.19
2022-08-10T23:36:34.427Z,17.16
2022-08-10T23:39:44.716Z,17.14
2022-08-10T23:42:53.379Z,17.15
2022-08-10T23:46:01.490Z,17.13
2022-08-10T23:49:11.571Z,17.09
2022-08-10T23:52:21.734Z,17.07
2022-08-10T23:55:29.965Z,17.09
2022-08-10T23:58:44.595Z,17.06
